createdAt,value
2023-12-18T00:00:00.480Z,12.73
2023-12-18T00:02:28.143Z,11.35
2023-12-18T00:04:55.724Z,14.40
2023-12-18T00:07:23.438Z,11.48
2023-12-18T00:09:51.050Z,9.63
2023-12-18T00:12:18.686Z,8.25
2023-12-18T00:14:46.503Z,12.32
2023-12-18T00:17:14.306Z,13.65
2023-12-18T00:19:42.174Z,11.75
2023-12-18T00:22:09.846Z,7.50
2023-12-18T00:24:37.526Z,6.95
2023-12-18T00:27:05.575Z,12.55
2023-12-18T00:29:33.343Z,6.45
2023-12-18T00:32:01.305Z,9.85
2023-12-18T00:34:29.336Z,7.78
2023-12-18T00:36:57.010Z,6.30
2023-12-18T00:39:24.819Z,5.15
2023-12-18T00:41:55.203Z,5.18
2023-12-18T00:44:22.808Z,5.38
2023-12-18T00:46:50.698Z,3.22
2023-12-18T00:49:18.566Z,5.75
2023-12-18T00:51:46.221Z,7.05
2023-12-18T00:54:13.913Z,9.88
2023-12-18T00:56:41.527Z,12.13
2023-12-18T00:59:09.112Z,10.55
2023-12-18T01:01:36.896Z,15.90
2023-12-18T01:04:04.725Z,13.00
2023-12-18T01:06:33.239Z,12.75
2023-12-18T01:09:01.723Z,7.47
2023-12-18T01:11:29.312Z,11.50
2023-12-18T01:13:56.892Z,7.30
2023-12-18T01:16:24.454Z,10.05
2023-12-18T01:18:52.265Z,9.30
2023-12-18T01:21:20.186Z,6.22
2023-12-18T01:23:47.793Z,9.75
2023-12-18T01:26:15.451Z,6.85
2023-12-18T01:28:44.806Z,10.60
2023-12-18T01:31:22.523Z,9.68
2023-12-18T01:33:50.792Z,6.82
2023-12-18T01:36:18.728Z,8.95
2023-12-18T01:38:47.399Z,10.48
2023-12-18T01:41:15.115Z,8.50
2023-12-18T01:43:43.185Z,6.93
2023-12-18T01:46:18.770Z,4.60
2023-12-18T01:48:47.087Z,6.05
2023-12-18T01:51:15.083Z,5.68
2023-12-18T01:53:46.903Z,6.97
2023-12-18T01:56:17.074Z,7.90
2023-12-18T01:58:46.642Z,6.30
2023-12-18T02:01:14.893Z,8.55
2023-12-18T02:03:44.525Z,8.57
2023-12-18T02:06:15.028Z,6.80
2023-12-18T02:08:43.284Z,5.05
2023-12-18T02:11:11.137Z,5.20
2023-12-18T02:13:41.237Z,5.10
2023-12-18T02:16:10.019Z,6.60
2023-12-18T02:18:45.042Z,5.45
2023-12-18T02:21:19.037Z,5.28
2023-12-18T02:23:47.266Z,6.22
2023-12-18T02:26:16.962Z,5.95
2023-12-18T02:28:45.611Z,5.75
2023-12-18T02:31:19.353Z,4.75
2023-12-18T02:33:50.518Z,5.30
2023-12-18T02:36:18.770Z,10.02
2023-12-18T02:38:46.432Z,7.03
2023-12-18T02:41:14.024Z,5.20
2023-12-18T02:43:41.697Z,25.38
2023-12-18T02:46:09.378Z,21.73
2023-12-18T02:48:37.166Z,13.18
2023-12-18T02:51:05.843Z,15.45
2023-12-18T02:53:34.819Z,14.27
2023-12-18T02:56:02.724Z,11.60
2023-12-18T02:58:30.273Z,15.68
2023-12-18T03:00:57.906Z,22.42
2023-12-18T03:03:25.595Z,21.30
2023-12-18T03:05:54.195Z,13.15
2023-12-18T03:08:22.062Z,14.73
2023-12-18T03:10:49.670Z,13.80
2023-12-18T03:13:17.300Z,15.82
2023-12-18T03:15:45.266Z,15.25
2023-12-18T03:18:13.412Z,18.25
2023-12-18T03:20:41.258Z,15.55
2023-12-18T03:23:08.923Z,22.27
2023-12-18T03:25:36.611Z,19.08
2023-12-18T03:28:05.038Z,18.73
2023-12-18T03:30:32.804Z,16.02
2023-12-18T03:33:01.648Z,14.73
2023-12-18T03:35:29.333Z,13.80
2023-12-18T03:37:56.893Z,14.85
2023-12-18T03:40:24.467Z,19.05
2023-12-18T03:42:52.233Z,12.90
2023-12-18T03:45:19.914Z,19.52
2023-12-18T03:47:47.530Z,20.33
2023-12-18T03:50:15.227Z,16.35
2023-12-18T03:52:42.851Z,17.33
2023-12-18T03:55:10.683Z,13.95
2023-12-18T03:57:38.401Z,17.17
2023-12-18T04:00:07.295Z,14.45
2023-12-18T04:02:40.277Z,12.65
2023-12-18T04:05:08.367Z,10.65
2023-12-18T04:07:36.425Z,16.17
2023-12-18T04:10:04.893Z,13.10
2023-12-18T04:12:32.656Z,12.43
2023-12-18T04:15:00.338Z,12.88
2023-12-18T04:17:28.027Z,14.45
2023-12-18T04:19:55.873Z,10.32
2023-12-18T04:22:23.463Z,14.88
2023-12-18T04:24:51.190Z,11.93
2023-12-18T04:27:19.236Z,11.35
2023-12-18T04:29:46.926Z,15.15
2023-12-18T04:32:14.568Z,22.65
2023-12-18T04:34:43.454Z,24.70
2023-12-18T04:37:11.655Z,26.75
2023-12-18T04:39:39.369Z,40.78
2023-12-18T04:42:07.067Z,24.45
2023-12-18T04:44:34.737Z,34.80
2023-12-18T04:47:02.699Z,55.05
2023-12-18T04:49:30.446Z,40.08
2023-12-18T04:51:58.313Z,40.53
2023-12-18T04:54:26.031Z,42.17
2023-12-18T04:56:53.780Z,40.08
2023-12-18T04:59:21.829Z,28.73
2023-12-18T05:01:49.505Z,22.35
2023-12-18T05:04:17.203Z,26.58
2023-12-18T05:06:45.035Z,42.67
2023-12-18T05:09:12.706Z,31.92
2023-12-18T05:11:40.418Z,23.13
2023-12-18T05:14:08.489Z,32.80
2023-12-18T05:16:36.286Z,23.55
2023-12-18T05:19:04.009Z,28.42
2023-12-18T05:21:31.690Z,24.73
2023-12-18T05:23:59.392Z,28.02
2023-12-18T05:26:27.055Z,22.63
2023-12-18T05:28:54.618Z,34.85
2023-12-18T05:31:22.381Z,50.33
2023-12-18T05:33:50.530Z,31.13
2023-12-18T05:36:18.359Z,20.30
2023-12-18T05:38:45.976Z,35.58
2023-12-18T05:41:13.788Z,18.60
2023-12-18T05:43:41.848Z,20.98
2023-12-18T05:46:14.634Z,23.30
2023-12-18T05:48:42.320Z,34.58
2023-12-18T05:51:22.823Z,23.88
2023-12-18T05:53:50.595Z,18.73
2023-12-18T05:56:18.537Z,31.48
2023-12-18T05:58:46.578Z,22.83
2023-12-18T06:01:14.330Z,35.95
2023-12-18T06:03:42.159Z,12.55
2023-12-18T06:06:09.896Z,18.00
2023-12-18T06:08:37.496Z,17.27
2023-12-18T06:11:05.130Z,23.23
2023-12-18T06:13:33.118Z,37.22
2023-12-18T06:16:02.440Z,21.30
2023-12-18T06:18:30.276Z,26.98
2023-12-18T06:21:02.451Z,18.88
2023-12-18T06:23:30.221Z,29.38
2023-12-18T06:25:59.513Z,22.33
2023-12-18T06:28:29.173Z,33.42
2023-12-18T06:30:56.973Z,20.48
2023-12-18T06:33:24.840Z,23.33
2023-12-18T06:35:52.653Z,27.33
2023-12-18T06:38:20.170Z,25.30
2023-12-18T06:40:47.834Z,25.08
2023-12-18T06:43:15.508Z,44.75
2023-12-18T06:45:43.185Z,29.85
2023-12-18T06:48:11.009Z,28.83
2023-12-18T06:50:38.730Z,30.70
2023-12-18T06:53:06.350Z,27.67
2023-12-18T06:55:35.412Z,23.40
2023-12-18T06:58:03.340Z,26.38
2023-12-18T07:00:39.815Z,24.73
2023-12-18T07:03:09.413Z,27.55
2023-12-18T07:05:37.418Z,23.23
2023-12-18T07:08:05.459Z,29.30
2023-12-18T07:10:33.124Z,27.92
2023-12-18T07:13:00.736Z,26.23
2023-12-18T07:15:28.386Z,18.95
2023-12-18T07:17:59.765Z,17.23
2023-12-18T07:20:27.671Z,33.15
2023-12-18T07:22:55.225Z,21.40
2023-12-18T07:25:22.823Z,25.38
2023-12-18T07:27:50.851Z,13.73
2023-12-18T07:30:20.263Z,21.75
2023-12-18T07:32:48.033Z,14.30
2023-12-18T07:35:15.617Z,46.28
2023-12-18T07:37:43.289Z,28.33
2023-12-18T07:40:12.120Z,27.02
2023-12-18T07:42:40.005Z,20.63
2023-12-18T07:45:07.950Z,33.28
2023-12-18T07:47:35.829Z,26.52
2023-12-18T07:50:03.653Z,20.20
2023-12-18T07:52:31.288Z,24.52
2023-12-18T07:54:58.825Z,34.70
2023-12-18T07:57:26.474Z,23.70
2023-12-18T07:59:55.405Z,24.65
2023-12-18T08:02:23.060Z,23.02
2023-12-18T08:04:50.763Z,22.75
2023-12-18T08:07:18.453Z,27.10
2023-12-18T08:09:46.182Z,24.30
2023-12-18T08:12:13.847Z,31.85
2023-12-18T08:14:45.540Z,27.65
2023-12-18T08:17:16.391Z,15.10
2023-12-18T08:19:48.490Z,14.68
2023-12-18T08:22:16.697Z,20.38
2023-12-18T08:24:44.403Z,20.85
2023-12-18T08:27:12.196Z,32.60
2023-12-18T08:29:41.062Z,22.65
2023-12-18T08:32:08.739Z,24.05
2023-12-18T08:34:36.821Z,23.85
2023-12-18T08:37:05.055Z,21.55
2023-12-18T08:39:33.157Z,29.90
2023-12-18T08:42:00.746Z,66.63
2023-12-18T08:44:28.687Z,28.95
2023-12-18T08:46:56.462Z,36.22
2023-12-18T08:49:24.264Z,44.20
2023-12-18T08:51:52.109Z,31.52
2023-12-18T08:54:19.867Z,35.38
2023-12-18T08:56:49.222Z,45.75
2023-12-18T08:59:16.888Z,49.38
2023-12-18T09:01:44.585Z,50.15
2023-12-18T09:04:13.629Z,35.95
2023-12-18T09:06:41.597Z,29.80
2023-12-18T09:09:09.368Z,27.20
2023-12-18T09:11:37.139Z,26.58
2023-12-18T09:14:04.892Z,48.72
2023-12-18T09:16:32.935Z,36.63
2023-12-18T09:19:01.075Z,33.78
2023-12-18T09:21:29.075Z,24.42
2023-12-18T09:23:56.796Z,35.25
2023-12-18T09:26:24.533Z,41.72
2023-12-18T09:28:52.405Z,40.83
2023-12-18T09:31:20.401Z,23.38
2023-12-18T09:33:48.343Z,27.80
2023-12-18T09:36:16.091Z,34.33
2023-12-18T09:38:43.725Z,44.00
2023-12-18T09:41:11.580Z,65.50
2023-12-18T09:43:39.178Z,47.75
2023-12-18T09:46:08.612Z,35.55
2023-12-18T09:48:36.531Z,39.63
2023-12-18T09:51:09.036Z,39.63
2023-12-18T09:53:36.795Z,38.67
2023-12-18T09:56:04.971Z,49.80
2023-12-18T09:58:33.080Z,31.13
2023-12-18T10:01:00.855Z,37.78
2023-12-18T10:03:28.656Z,39.45
2023-12-18T10:05:56.397Z,20.15
2023-12-18T10:08:24.476Z,21.35
2023-12-18T10:10:52.172Z,35.25
2023-12-18T10:13:19.785Z,23.73
2023-12-18T10:15:47.477Z,27.80
2023-12-18T10:18:19.513Z,27.30
2023-12-18T10:20:50.077Z,19.08
2023-12-18T10:23:18.223Z,24.33
2023-12-18T10:25:46.019Z,27.58
2023-12-18T10:28:14.257Z,24.88
2023-12-18T10:30:42.099Z,26.55
2023-12-18T10:33:12.206Z,28.67
2023-12-18T10:35:40.991Z,21.23
2023-12-18T10:38:10.441Z,21.45
2023-12-18T10:40:38.931Z,26.85
2023-12-18T10:43:36.331Z,36.22
2023-12-18T10:46:04.823Z,30.30
2023-12-18T10:48:33.787Z,20.20
2023-12-18T10:51:03.531Z,35.13
2023-12-18T10:53:36.629Z,20.92
2023-12-18T10:56:08.998Z,26.33
2023-12-18T10:58:39.295Z,23.60
2023-12-18T11:01:09.221Z,30.88
2023-12-18T11:03:41.779Z,20.90
2023-12-18T11:06:11.766Z,20.15
2023-12-18T11:08:39.771Z,24.73
2023-12-18T11:11:08.626Z,21.33
2023-12-18T11:14:01.071Z,27.80
2023-12-18T11:16:47.171Z,22.23
2023-12-18T11:19:39.109Z,29.70
2023-12-18T11:22:07.371Z,23.20
2023-12-18T11:24:37.883Z,24.02
2023-12-18T11:27:07.329Z,29.10
2023-12-18T11:29:44.673Z,28.98
2023-12-18T11:32:13.377Z,34.03
2023-12-18T11:34:42.407Z,35.72
2023-12-18T11:37:12.537Z,45.78
2023-12-18T11:39:41.229Z,48.85
2023-12-18T11:42:09.616Z,41.90
2023-12-18T11:44:38.811Z,59.92
2023-12-18T11:47:07.800Z,44.47
2023-12-18T11:49:36.064Z,41.38
2023-12-18T11:52:21.498Z,46.97
2023-12-18T11:54:50.036Z,53.03
2023-12-18T11:57:22.175Z,48.00
2023-12-18T11:59:50.011Z,40.88
2023-12-18T12:02:18.052Z,48.50
2023-12-18T12:04:47.342Z,54.42
2023-12-18T12:07:15.194Z,47.95
2023-12-18T12:09:44.982Z,37.35
2023-12-18T12:12:15.468Z,38.72
2023-12-18T12:14:43.415Z,39.22
2023-12-18T12:17:10.997Z,36.10
2023-12-18T12:19:39.095Z,35.75
2023-12-18T12:22:07.816Z,41.78
2023-12-18T12:24:40.106Z,42.97
2023-12-18T12:27:08.348Z,41.55
2023-12-18T12:29:37.020Z,46.15
2023-12-18T12:32:13.455Z,36.72
2023-12-18T12:34:42.977Z,27.50
2023-12-18T12:37:13.877Z,26.70
2023-12-18T12:40:00.466Z,30.15
2023-12-18T12:42:29.114Z,18.80
2023-12-18T12:44:57.240Z,20.73
2023-12-18T12:47:26.592Z,20.10
2023-12-18T12:49:54.877Z,23.40
2023-12-18T12:52:22.634Z,24.80
2023-12-18T12:54:50.906Z,21.92
2023-12-18T12:57:19.486Z,20.60
2023-12-18T12:59:54.812Z,21.20
2023-12-18T13:02:23.783Z,33.03
2023-12-18T13:04:51.638Z,37.03
2023-12-18T13:07:22.513Z,39.38
2023-12-18T13:09:51.441Z,32.67
2023-12-18T13:12:21.207Z,47.95
2023-12-18T13:14:50.956Z,44.67
2023-12-18T13:17:18.613Z,43.33
2023-12-18T13:19:46.483Z,40.65
2023-12-18T13:22:14.517Z,49.65
2023-12-18T13:24:42.101Z,67.63
2023-12-18T13:27:10.142Z,68.47
2023-12-18T13:29:37.797Z,51.72
2023-12-18T13:32:05.826Z,47.33
2023-12-18T13:34:33.820Z,39.10
2023-12-18T13:37:02.268Z,43.97
2023-12-18T13:39:30.702Z,33.75
2023-12-18T13:42:01.052Z,32.17
2023-12-18T13:44:30.092Z,33.17
2023-12-18T13:46:57.809Z,37.80
2023-12-18T13:49:25.418Z,32.05
2023-12-18T13:51:53.801Z,30.67
2023-12-18T13:54:23.214Z,39.20
2023-12-18T13:56:51.121Z,37.33
2023-12-18T13:59:18.715Z,44.15
2023-12-18T14:01:46.402Z,54.88
2023-12-18T14:04:14.246Z,51.33
2023-12-18T14:06:42.032Z,99.25
2023-12-18T14:09:11.431Z,83.90
2023-12-18T14:11:39.209Z,78.38
2023-12-18T14:14:07.231Z,89.20
2023-12-18T14:16:34.987Z,90.55
2023-12-18T14:19:02.634Z,71.68
2023-12-18T14:21:33.049Z,87.75
2023-12-18T14:24:00.743Z,108.00
2023-12-18T14:26:28.532Z,97.05
2023-12-18T14:28:56.810Z,95.32
2023-12-18T14:31:25.296Z,86.53
2023-12-18T14:33:53.288Z,116.28
2023-12-18T14:36:21.289Z,119.88
2023-12-18T14:38:53.191Z,75.25
2023-12-18T14:41:21.419Z,97.60
2023-12-18T14:43:49.034Z,100.85
2023-12-18T14:46:17.292Z,98.45
2023-12-18T14:48:45.283Z,113.85
2023-12-18T14:51:13.206Z,114.90
2023-12-18T14:53:40.902Z,94.20
2023-12-18T14:56:10.253Z,91.00
2023-12-18T14:58:37.955Z,72.22
2023-12-18T15:01:05.670Z,93.60
2023-12-18T15:03:33.510Z,122.30
2023-12-18T15:06:01.288Z,90.03
2023-12-18T15:08:29.078Z,102.68
2023-12-18T15:10:57.053Z,118.47
2023-12-18T15:13:25.016Z,137.15
2023-12-18T15:15:53.021Z,117.35
2023-12-18T15:18:20.898Z,113.85
2023-12-18T15:20:48.717Z,119.97
2023-12-18T15:23:16.440Z,109.35
2023-12-18T15:25:44.128Z,108.53
2023-12-18T15:28:12.656Z,142.32
2023-12-18T15:30:40.313Z,195.57
2023-12-18T15:33:08.156Z,155.90
2023-12-18T15:35:35.848Z,169.68
2023-12-18T15:38:03.578Z,154.88
2023-12-18T15:40:32.281Z,139.65
2023-12-18T15:42:59.944Z,124.10
2023-12-18T15:45:27.610Z,99.47
2023-12-18T15:48:14.326Z,82.57
2023-12-18T15:50:42.172Z,80.47
2023-12-18T15:53:11.839Z,113.93
2023-12-18T15:55:39.502Z,78.30
2023-12-18T15:58:07.101Z,92.65
2023-12-18T16:00:34.779Z,114.93
2023-12-18T16:03:02.524Z,107.72
2023-12-18T16:05:35.000Z,87.53
2023-12-18T16:08:03.437Z,88.53
2023-12-18T16:10:35.129Z,84.45
2023-12-18T16:13:02.851Z,56.72
2023-12-18T16:15:30.501Z,73.90
2023-12-18T16:17:58.723Z,88.00
2023-12-18T16:20:26.393Z,81.53
2023-12-18T16:22:53.998Z,61.80
2023-12-18T16:25:21.608Z,54.65
2023-12-18T16:27:49.298Z,71.82
2023-12-18T16:30:17.193Z,64.13
2023-12-18T16:32:45.178Z,64.10
2023-12-18T16:35:13.164Z,53.65
2023-12-18T16:37:41.007Z,52.80
2023-12-18T16:40:12.415Z,49.78
2023-12-18T16:42:40.485Z,53.35
2023-12-18T16:45:09.044Z,38.50
2023-12-18T16:47:36.672Z,60.42
2023-12-18T16:50:04.700Z,61.33
2023-12-18T16:52:33.888Z,59.13
2023-12-18T16:55:02.366Z,81.18
2023-12-18T16:57:32.096Z,70.82
2023-12-18T17:00:06.752Z,68.03
2023-12-18T17:02:40.851Z,55.13
2023-12-18T17:05:09.069Z,44.30
2023-12-18T17:07:37.034Z,45.00
2023-12-18T17:10:05.104Z,27.45
2023-12-18T17:12:32.744Z,41.00
2023-12-18T17:15:00.377Z,38.70
2023-12-18T17:17:30.693Z,33.65
2023-12-18T17:19:58.713Z,47.70
2023-12-18T17:22:26.499Z,47.65
2023-12-18T17:24:54.441Z,42.05
2023-12-18T17:27:22.136Z,38.53
2023-12-18T17:29:49.757Z,30.30
2023-12-18T17:32:28.328Z,43.08
2023-12-18T17:35:01.261Z,41.92
2023-12-18T17:37:29.135Z,53.33
2023-12-18T17:39:56.952Z,44.53
2023-12-18T17:42:30.628Z,41.75
2023-12-18T17:45:00.920Z,41.50
2023-12-18T17:47:29.382Z,56.10
2023-12-18T17:49:57.378Z,141.23
2023-12-18T17:52:25.508Z,106.80
2023-12-18T17:54:53.581Z,84.53
2023-12-18T17:57:21.736Z,86.35
2023-12-18T17:59:50.950Z,80.53
2023-12-18T18:02:18.662Z,95.57
2023-12-18T18:04:46.743Z,77.35
2023-12-18T18:07:14.582Z,98.75
2023-12-18T18:09:42.643Z,101.78
2023-12-18T18:12:10.725Z,81.57
2023-12-18T18:14:38.394Z,122.10
2023-12-18T18:17:06.121Z,108.97
2023-12-18T18:19:33.883Z,67.15
2023-12-18T18:22:02.935Z,63.83
2023-12-18T18:24:30.915Z,61.17
2023-12-18T18:27:08.897Z,73.13
2023-12-18T18:29:38.985Z,78.05
2023-12-18T18:32:07.481Z,62.67
2023-12-18T18:34:38.326Z,47.00
2023-12-18T18:37:06.969Z,55.13
2023-12-18T18:39:34.878Z,69.57
2023-12-18T18:42:02.718Z,70.15
2023-12-18T18:44:30.652Z,78.22
2023-12-18T18:46:59.131Z,85.53
2023-12-18T18:49:27.940Z,79.53
2023-12-18T18:51:59.046Z,75.40
2023-12-18T18:54:27.380Z,80.93
2023-12-18T18:56:55.397Z,68.28
2023-12-18T18:59:23.554Z,58.47
2023-12-18T19:01:53.202Z,64.07
2023-12-18T19:04:21.267Z,61.63
2023-12-18T19:06:49.146Z,61.05
2023-12-18T19:09:17.781Z,64.15
2023-12-18T19:11:45.736Z,71.97
2023-12-18T19:14:13.690Z,77.20
2023-12-18T19:16:41.943Z,95.05
2023-12-18T19:19:09.783Z,80.35
2023-12-18T19:21:37.856Z,69.00
2023-12-18T19:24:06.418Z,65.65
2023-12-18T19:26:34.483Z,59.80
2023-12-18T19:29:02.847Z,70.20
2023-12-18T19:31:36.199Z,64.50
2023-12-18T19:34:06.694Z,92.43
2023-12-18T19:36:35.408Z,72.82
2023-12-18T19:39:07.771Z,69.15
2023-12-18T19:41:36.965Z,77.38
2023-12-18T19:44:05.982Z,84.28
2023-12-18T19:46:34.697Z,71.18
2023-12-18T19:49:03.798Z,95.57
2023-12-18T19:51:33.834Z,84.38
2023-12-18T19:54:02.553Z,92.32
2023-12-18T19:56:31.532Z,82.82
2023-12-18T19:59:00.430Z,73.70
2023-12-18T20:01:30.975Z,73.40
2023-12-18T20:04:00.086Z,78.20
2023-12-18T20:06:29.911Z,92.90
2023-12-18T20:08:58.780Z,120.40
2023-12-18T20:11:27.425Z,110.38
2023-12-18T20:13:56.136Z,110.93
2023-12-18T20:16:24.903Z,110.50
2023-12-18T20:18:54.603Z,106.72
2023-12-18T20:21:23.964Z,108.88
2023-12-18T20:23:53.460Z,103.50
2023-12-18T20:26:22.378Z,131.77
2023-12-18T20:28:51.242Z,95.32
2023-12-18T20:31:20.037Z,76.07
2023-12-18T20:33:48.978Z,82.45
2023-12-18T20:36:17.673Z,88.75
2023-12-18T20:38:47.030Z,82.65
2023-12-18T20:41:15.671Z,88.57
2023-12-18T20:43:43.862Z,95.22
2023-12-18T20:46:11.998Z,111.68
2023-12-18T20:48:40.170Z,112.03
2023-12-18T20:51:08.012Z,108.20
2023-12-18T20:53:36.045Z,109.43
2023-12-18T20:56:03.990Z,99.00
2023-12-18T20:58:32.615Z,92.40
2023-12-18T21:01:01.196Z,70.90
2023-12-18T21:03:29.164Z,65.25
2023-12-18T21:05:56.878Z,85.77
2023-12-18T21:08:24.578Z,164.23
2023-12-18T21:10:52.151Z,116.38
2023-12-18T21:13:19.745Z,89.93
2023-12-18T21:15:47.754Z,78.38
2023-12-18T21:18:18.546Z,61.97
2023-12-18T21:20:46.256Z,74.50
2023-12-18T21:23:13.935Z,81.15
2023-12-18T21:25:43.442Z,96.53
2023-12-18T21:28:11.146Z,99.75
2023-12-18T21:30:38.787Z,101.95
2023-12-18T21:33:06.466Z,92.17
2023-12-18T21:35:34.401Z,85.78
2023-12-18T21:38:02.021Z,82.53
2023-12-18T21:40:29.991Z,91.30
2023-12-18T21:42:57.721Z,77.35
2023-12-18T21:45:25.395Z,75.82
2023-12-18T21:47:53.126Z,83.15
2023-12-18T21:50:21.090Z,90.63
2023-12-18T21:52:50.567Z,93.30
2023-12-18T21:55:18.280Z,95.88
2023-12-18T21:57:46.398Z,78.03
2023-12-18T22:00:14.611Z,91.75
2023-12-18T22:02:42.613Z,83.45
2023-12-18T22:05:12.053Z,105.65
2023-12-18T22:07:39.838Z,82.90
2023-12-18T22:10:08.675Z,76.32
2023-12-18T22:12:36.357Z,71.40
2023-12-18T22:15:05.088Z,83.40
2023-12-18T22:17:32.787Z,67.15
2023-12-18T22:20:01.812Z,68.72
2023-12-18T22:22:29.821Z,66.55
2023-12-18T22:24:57.578Z,63.55
2023-12-18T22:27:25.388Z,64.72
2023-12-18T22:29:53.138Z,64.30
2023-12-18T22:32:20.741Z,69.15
2023-12-18T22:34:49.152Z,66.72
2023-12-18T22:37:16.944Z,57.35
2023-12-18T22:39:44.593Z,91.70
2023-12-18T22:42:12.332Z,59.28
2023-12-18T22:44:39.920Z,64.10
2023-12-18T22:47:08.568Z,80.55
2023-12-18T22:49:36.585Z,65.78
2023-12-18T22:52:04.792Z,68.03
2023-12-18T22:54:32.591Z,60.63
2023-12-18T22:57:00.185Z,51.50
2023-12-18T22:59:28.014Z,65.03
2023-12-18T23:01:55.638Z,61.95
2023-12-18T23:04:23.294Z,55.78
2023-12-18T23:06:51.158Z,69.00
2023-12-18T23:09:20.423Z,61.17
2023-12-18T23:11:48.408Z,46.92
2023-12-18T23:14:16.013Z,66.70
2023-12-18T23:16:43.594Z,82.72
2023-12-18T23:19:11.369Z,59.30
2023-12-18T23:21:40.665Z,72.43
2023-12-18T23:24:08.967Z,55.42
2023-12-18T23:26:38.579Z,51.88
2023-12-18T23:29:07.384Z,49.27
2023-12-18T23:31:35.239Z,43.50
2023-12-18T23:34:03.114Z,39.93
2023-12-18T23:36:31.067Z,53.63
2023-12-18T23:38:58.784Z,36.77
2023-12-18T23:41:26.671Z,39.07
2023-12-18T23:43:54.259Z,30.97
2023-12-18T23:46:23.084Z,55.30
2023-12-18T23:48:51.181Z,50.83
2023-12-18T23:51:18.998Z,53.47
2023-12-18T23:53:46.735Z,34.80
2023-12-18T23:56:14.321Z,38.40
2023-12-18T23:58:41.959Z,33.33
